createdAt,value
2017-05-16T00:04:02.833Z,58.33
2017-05-16T00:09:01.124Z,57.56
2017-05-16T00:13:58.359Z,57.85
2017-05-16T00:18:53.999Z,58.42
2017-05-16T00:23:52.421Z,58.59
2017-05-16T00:28:47.858Z,59.06
2017-05-16T00:33:44.697Z,58.23
2017-05-16T00:38:41.124Z,58.30
2017-05-16T00:43:37.346Z,58.23
2017-05-16T00:48:33.125Z,58.39
2017-05-16T00:53:29.269Z,57.92
2017-05-16T00:58:25.405Z,56.38
2017-05-16T01:03:21.344Z,56.96
2017-05-16T01:08:18.804Z,57.53
2017-05-16T01:13:14.234Z,56.67
2017-05-16T01:18:10.194Z,56.76
2017-05-16T01:23:06.614Z,56.96
2017-05-16T01:28:02.157Z,56.29
2017-05-16T01:32:58.299Z,55.33
2017-05-16T01:37:55.521Z,55.71
2017-05-16T01:42:52.042Z,57.53
2017-05-16T01:47:48.650Z,56.67
2017-05-16T01:52:44.324Z,56.57
2017-05-16T01:57:40.069Z,55.71
2017-05-16T02:02:36.782Z,56.00
2017-05-16T02:07:32.108Z,56.48
2017-05-16T02:12:27.707Z,56.09
2017-05-16T02:17:26.730Z,56.67
2017-05-16T02:22:22.010Z,58.20
2017-05-16T02:27:18.094Z,57.82
2017-05-16T02:32:13.941Z,56.76
2017-05-16T02:37:11.634Z,58.59
2017-05-16T02:42:07.553Z,57.53
2017-05-16T02:47:03.717Z,57.98
2017-05-16T02:52:00.400Z,58.97
2017-05-16T02:56:57.517Z,58.59
2017-05-16T03:01:54.067Z,58.56
2017-05-16T03:06:50.821Z,59.26
2017-05-16T03:11:46.361Z,60.79
2017-05-16T03:16:43.086Z,60.00
2017-05-16T03:21:38.945Z,62.20
2017-05-16T03:26:34.707Z,61.24
2017-05-16T03:36:32.382Z,61.18
2017-05-16T03:41:28.216Z,61.53
2017-05-16T03:46:24.271Z,61.15
2017-05-16T03:51:21.114Z,61.63
2017-05-16T03:56:16.774Z,61.53
2017-05-16T04:01:12.512Z,61.72
2017-05-16T04:06:08.779Z,61.34
2017-05-16T04:11:04.860Z,61.85
2017-05-16T04:16:01.036Z,62.04
2017-05-16T04:20:56.964Z,62.30
2017-05-16T04:25:53.617Z,62.39
2017-05-16T04:30:49.659Z,62.59
2017-05-16T04:35:45.819Z,62.39
2017-05-16T04:40:42.860Z,62.87
2017-05-16T04:45:38.560Z,63.06
2017-05-16T04:50:35.996Z,63.45
2017-05-16T04:55:31.560Z,63.06
2017-05-16T05:00:28.770Z,62.23
2017-05-16T05:05:24.596Z,62.33
2017-05-16T05:15:20.936Z,63.00
2017-05-16T05:20:17.390Z,62.81
2017-05-16T05:25:13.285Z,62.13
2017-05-16T05:40:14.488Z,63.00
2017-05-16T05:45:09.750Z,62.62
2017-05-16T05:50:05.665Z,63.09
2017-05-16T06:00:04.078Z,63.79
2017-05-16T06:05:00.179Z,63.70
2017-05-16T06:09:56.213Z,64.85
2017-05-16T06:14:52.294Z,62.84
2017-05-16T06:19:47.832Z,63.32
2017-05-16T06:24:43.825Z,63.89
2017-05-16T06:29:39.549Z,62.45
2017-05-16T06:34:35.305Z,61.49
2017-05-16T06:39:31.370Z,61.11
2017-05-16T06:44:27.188Z,60.72
2017-05-16T06:49:23.091Z,59.61
2017-05-16T06:54:18.816Z,60.08
2017-05-16T06:59:16.011Z,61.05
2017-05-16T07:04:11.739Z,60.28
2017-05-16T07:09:07.911Z,61.14
2017-05-16T07:14:03.910Z,62.77
2017-05-16T07:18:59.602Z,63.64
2017-05-16T07:23:56.185Z,64.72
2017-05-16T07:28:52.064Z,62.13
2017-05-16T07:33:48.331Z,62.23
2017-05-16T07:38:44.585Z,62.16
2017-05-16T07:43:41.508Z,61.20
2017-05-16T07:48:37.406Z,61.43
2017-05-16T07:53:33.685Z,62.68
2017-05-16T07:58:30.950Z,62.96
2017-05-16T08:03:26.473Z,62.58
2017-05-16T08:08:23.047Z,63.35
2017-05-16T08:13:19.054Z,63.09
2017-05-16T08:18:17.522Z,64.15
2017-05-16T08:23:12.872Z,64.18
2017-05-16T08:28:09.539Z,63.70
2017-05-16T08:33:05.884Z,63.60
2017-05-16T08:38:05.532Z,63.73
2017-05-16T08:43:01.712Z,63.06
2017-05-16T08:47:58.318Z,62.70
2017-05-16T08:52:54.714Z,61.29
2017-05-16T08:57:52.172Z,59.87
2017-05-16T09:02:48.371Z,59.61
2017-05-16T09:07:44.230Z,59.61
2017-05-16T09:12:40.136Z,60.55
2017-05-16T09:17:36.015Z,60.58
2017-05-16T09:22:32.044Z,60.19
2017-05-16T09:27:28.961Z,60.77
2017-05-16T09:32:24.465Z,61.06
2017-05-16T09:37:21.453Z,59.35
2017-05-16T09:42:18.536Z,59.67
2017-05-16T09:47:14.004Z,59.45
2017-05-16T09:52:09.131Z,59.64
2017-05-16T09:57:04.681Z,60.61
2017-05-16T10:02:01.232Z,60.99
2017-05-16T10:06:57.549Z,59.96
2017-05-16T10:11:53.077Z,60.25
2017-05-16T10:16:49.630Z,61.28
2017-05-16T10:21:45.816Z,60.89
2017-05-16T10:26:41.994Z,60.16
2017-05-16T10:31:37.978Z,59.86
2017-05-16T10:36:35.675Z,59.96
2017-05-16T10:41:31.007Z,60.44
2017-05-16T10:46:27.358Z,59.38
2017-05-16T10:51:24.094Z,58.54
2017-05-16T10:56:20.328Z,58.06
2017-05-16T11:01:16.704Z,57.99
2017-05-16T11:06:14.703Z,56.54
2017-05-16T11:11:10.342Z,57.05
2017-05-16T11:16:06.118Z,56.47
2017-05-16T11:21:02.559Z,56.47
2017-05-16T11:25:58.884Z,56.98
2017-05-16T11:30:57.953Z,56.11
2017-05-16T11:35:52.899Z,56.02
2017-05-16T11:40:49.674Z,55.05
2017-05-16T11:45:46.043Z,54.63
2017-05-16T11:50:43.176Z,55.70
2017-05-16T11:55:38.147Z,55.51
2017-05-16T12:00:33.657Z,56.76
2017-05-16T12:05:29.101Z,57.03
2017-05-16T12:10:24.724Z,57.51
2017-05-16T12:15:20.626Z,59.25
2017-05-16T12:20:17.583Z,57.70
2017-05-16T12:25:13.724Z,57.99
2017-05-16T12:30:09.784Z,55.79
2017-05-16T12:35:05.948Z,55.05
2017-05-16T12:40:01.872Z,53.59
2017-05-16T12:44:57.829Z,53.99
2017-05-16T12:49:55.489Z,53.89
2017-05-16T12:54:51.482Z,52.73
2017-05-16T12:59:48.351Z,51.23
2017-05-16T13:04:44.812Z,51.52
2017-05-16T13:09:41.255Z,49.54
2017-05-16T13:14:37.419Z,49.63
2017-05-16T13:19:33.846Z,49.51
2017-05-16T13:24:29.492Z,49.15
2017-05-16T13:29:26.003Z,48.20
2017-05-16T13:34:22.629Z,46.45
2017-05-16T13:39:18.232Z,46.58
2017-05-16T13:44:14.774Z,47.52
2017-05-16T13:49:10.969Z,49.34
2017-05-16T13:54:06.038Z,49.51
2017-05-16T13:59:01.632Z,51.16
2017-05-16T14:03:57.108Z,50.19
2017-05-16T14:08:52.894Z,50.29
2017-05-16T14:13:49.601Z,50.48
2017-05-16T14:18:45.458Z,50.50
2017-05-16T14:23:42.613Z,49.82
2017-05-16T14:28:38.063Z,50.21
2017-05-16T14:33:33.883Z,50.41
2017-05-16T14:38:32.817Z,49.54
2017-05-16T14:43:28.028Z,49.54
2017-05-16T14:48:23.945Z,50.31
2017-05-16T14:53:19.732Z,50.60
2017-05-16T14:58:16.509Z,50.89
2017-05-16T15:03:12.421Z,49.44
2017-05-16T15:08:08.437Z,50.09
2017-05-16T15:13:04.430Z,50.38
2017-05-16T15:17:59.893Z,50.77
2017-05-16T15:22:55.935Z,51.04
2017-05-16T15:27:52.541Z,51.25
2017-05-16T15:32:47.998Z,51.04
2017-05-16T15:37:44.007Z,51.52
2017-05-16T15:42:39.765Z,50.45
2017-05-16T15:47:36.009Z,52.10
2017-05-16T15:52:31.757Z,52.87
2017-05-16T15:57:27.471Z,52.29
2017-05-16T16:02:23.186Z,52.78
2017-05-16T16:07:21.401Z,53.85
2017-05-16T16:12:16.604Z,53.81
2017-05-16T16:17:12.544Z,53.81
2017-05-16T16:22:08.314Z,53.53
2017-05-16T16:27:05.132Z,53.53
2017-05-16T16:32:00.734Z,52.36
2017-05-16T16:36:57.441Z,53.72
2017-05-16T16:41:53.297Z,52.56
2017-05-16T16:46:49.521Z,53.17
2017-05-16T16:51:45.440Z,53.43
2017-05-16T16:56:41.242Z,53.81
2017-05-16T17:01:37.930Z,54.69
2017-05-16T17:06:33.326Z,56.52
2017-05-16T17:11:29.189Z,54.66
2017-05-16T17:16:24.979Z,55.17
2017-05-16T17:21:22.533Z,55.53
2017-05-16T17:26:17.938Z,55.53
2017-05-16T17:31:13.635Z,54.57
2017-05-16T17:36:09.606Z,56.98
2017-05-16T17:41:06.607Z,58.60
2017-05-16T17:46:02.319Z,60.44
2017-05-16T17:50:58.454Z,61.69
2017-05-16T17:55:55.421Z,62.66
2017-05-16T18:00:51.383Z,63.14
2017-05-16T18:05:47.541Z,63.69
2017-05-16T18:10:45.112Z,64.56
2017-05-16T18:15:40.451Z,64.47
2017-05-16T18:20:37.551Z,64.47
2017-05-16T18:25:33.103Z,64.66
2017-05-16T18:30:34.934Z,65.50
2017-05-16T18:35:29.771Z,66.27
2017-05-16T18:40:33.190Z,67.04
2017-05-16T18:45:30.606Z,67.04
2017-05-16T18:50:26.037Z,67.52
2017-05-16T18:55:25.138Z,68.20
2017-05-16T19:00:21.129Z,68.17
2017-05-16T19:05:16.925Z,68.55
2017-05-16T19:10:15.665Z,68.75
2017-05-16T19:15:10.986Z,69.52
2017-05-16T19:20:07.752Z,70.00
2017-05-16T19:25:11.549Z,70.20
2017-05-16T19:30:08.615Z,70.84
2017-05-16T19:35:04.696Z,71.12
2017-05-16T19:40:00.258Z,71.42
2017-05-16T19:44:55.581Z,71.80
2017-05-16T19:49:53.903Z,72.19
2017-05-16T19:54:50.121Z,72.25
2017-05-16T19:59:51.005Z,72.34
2017-05-16T20:04:46.986Z,72.63
2017-05-16T20:09:43.071Z,72.44
2017-05-16T20:14:39.546Z,72.44
2017-05-16T20:19:36.473Z,74.76
2017-05-16T20:24:31.735Z,75.59
2017-05-16T20:29:27.893Z,75.88
2017-05-16T20:34:23.537Z,75.40
2017-05-16T20:39:19.746Z,76.36
2017-05-16T20:44:16.096Z,76.45
2017-05-16T20:49:11.623Z,77.51
2017-05-16T20:54:09.380Z,78.15
2017-05-16T20:59:04.499Z,77.67
2017-05-16T21:04:01.752Z,78.15
2017-05-16T21:08:56.889Z,77.09
2017-05-16T21:13:53.009Z,77.28
2017-05-16T21:18:49.055Z,77.48
2017-05-16T21:23:44.593Z,76.61
2017-05-16T21:28:40.393Z,77.19
2017-05-16T21:33:36.331Z,76.51
2017-05-16T21:38:33.719Z,77.09
2017-05-16T21:43:29.401Z,76.13
2017-05-16T21:48:26.397Z,76.71
2017-05-16T21:53:22.863Z,77.00
2017-05-16T21:58:18.368Z,76.23
2017-05-16T22:03:14.224Z,76.23
2017-05-16T22:08:10.232Z,76.28
2017-05-16T22:13:05.848Z,76.86
2017-05-16T22:18:01.780Z,76.76
2017-05-16T22:22:59.414Z,77.34
2017-05-16T22:27:55.303Z,77.83
2017-05-16T22:32:52.216Z,77.53
2017-05-16T22:37:48.322Z,77.83
2017-05-16T22:42:44.158Z,78.50
2017-05-16T22:47:40.122Z,78.79
2017-05-16T22:52:35.882Z,78.50
2017-05-16T22:57:31.540Z,79.36
2017-05-16T23:02:27.619Z,78.56
2017-05-16T23:07:24.224Z,78.65
2017-05-16T23:12:20.091Z,78.65
2017-05-16T23:17:15.931Z,78.65
2017-05-16T23:22:12.013Z,78.75
2017-05-16T23:27:07.737Z,79.81
2017-05-16T23:32:04.058Z,80.10
2017-05-16T23:37:04.217Z,79.81
2017-05-16T23:41:59.080Z,80.58
2017-05-16T23:46:54.838Z,79.81
2017-05-16T23:51:51.365Z,81.16
2017-05-16T23:56:46.819Z,82.60
